createdAt,value
2018-03-16T00:01:32.530Z,8.30
2018-03-16T00:04:08.119Z,8.40
2018-03-16T00:06:37.378Z,8.30
2018-03-16T00:09:12.109Z,8.30
2018-03-16T00:11:46.882Z,8.30
2018-03-16T00:14:21.596Z,8.30
2018-03-16T00:16:56.218Z,8.30
2018-03-16T00:19:31.102Z,8.30
2018-03-16T00:22:06.182Z,8.20
2018-03-16T00:24:40.850Z,8.10
2018-03-16T00:27:15.353Z,8.20
2018-03-16T00:29:50.043Z,8.10
2018-03-16T00:32:25.225Z,8.30
2018-03-16T00:35:00.712Z,8.20
2018-03-16T00:37:35.707Z,8.20
2018-03-16T00:40:11.122Z,8.20
2018-03-16T00:42:40.949Z,8.30
2018-03-16T00:45:16.198Z,8.30
2018-03-16T00:47:51.550Z,8.30
2018-03-16T00:50:26.213Z,8.40
2018-03-16T00:53:01.544Z,8.40
2018-03-16T00:55:36.815Z,8.30
2018-03-16T00:58:11.299Z,8.40
2018-03-16T01:00:48.311Z,8.40
2018-03-16T01:03:22.918Z,8.40
2018-03-16T01:05:58.248Z,8.30
2018-03-16T01:08:33.071Z,8.30
2018-03-16T01:11:08.637Z,8.20
2018-03-16T01:13:43.487Z,8.20
2018-03-16T01:16:18.073Z,8.20
2018-03-16T01:18:52.740Z,8.20
2018-03-16T01:21:27.296Z,8.20
2018-03-16T01:24:01.873Z,8.20
2018-03-16T01:26:36.774Z,8.20
2018-03-16T01:29:12.119Z,8.20
2018-03-16T01:31:46.687Z,8.20
2018-03-16T01:34:21.057Z,8.20
2018-03-16T01:36:55.574Z,8.20
2018-03-16T01:39:30.948Z,8.20
2018-03-16T01:42:05.545Z,8.20
2018-03-16T01:44:40.046Z,8.20
2018-03-16T01:47:14.586Z,8.20
2018-03-16T01:49:49.291Z,8.20
2018-03-16T01:52:23.879Z,8.20
2018-03-16T01:54:58.852Z,8.20
2018-03-16T01:57:34.221Z,8.20
2018-03-16T02:00:08.848Z,8.20
2018-03-16T02:02:43.341Z,8.20
2018-03-16T02:05:18.848Z,8.20
2018-03-16T02:07:53.552Z,8.20
2018-03-16T02:10:28.158Z,8.20
2018-03-16T02:13:02.822Z,8.20
2018-03-16T02:15:37.519Z,8.20
2018-03-16T02:18:12.268Z,8.20
2018-03-16T02:20:46.888Z,8.20
2018-03-16T02:23:21.419Z,8.20
2018-03-16T02:25:56.262Z,8.20
2018-03-16T02:28:30.913Z,8.20
2018-03-16T02:31:05.670Z,8.20
2018-03-16T02:33:41.056Z,8.20
2018-03-16T02:36:16.038Z,8.20
2018-03-16T02:38:50.692Z,8.20
2018-03-16T02:41:25.459Z,8.20
2018-03-16T02:44:00.268Z,8.20
2018-03-16T02:46:35.084Z,8.20
2018-03-16T02:49:09.767Z,8.20
2018-03-16T02:51:44.354Z,8.20
2018-03-16T02:54:18.960Z,8.20
2018-03-16T02:56:54.017Z,8.20
2018-03-16T02:59:28.653Z,8.20
2018-03-16T03:02:03.631Z,8.20
2018-03-16T03:04:38.400Z,8.30
2018-03-16T03:07:13.820Z,8.30
2018-03-16T03:09:49.238Z,8.30
2018-03-16T03:12:23.917Z,8.30
2018-03-16T03:14:58.571Z,8.40
2018-03-16T03:17:28.388Z,8.40
2018-03-16T03:20:03.845Z,8.40
2018-03-16T03:22:38.682Z,8.30
2018-03-16T03:25:14.039Z,8.30
2018-03-16T03:27:48.926Z,8.30
2018-03-16T03:30:23.579Z,8.30
2018-03-16T03:32:58.370Z,8.30
2018-03-16T03:35:32.960Z,8.40
2018-03-16T03:38:07.451Z,8.40
2018-03-16T03:40:42.417Z,8.40
2018-03-16T03:43:17.082Z,8.40
2018-03-16T03:45:51.776Z,8.40
2018-03-16T03:48:26.314Z,8.40
2018-03-16T03:51:01.149Z,8.40
2018-03-16T03:53:36.412Z,8.50
2018-03-16T03:56:11.792Z,8.50
2018-03-16T03:58:46.703Z,8.50
2018-03-16T04:01:22.255Z,8.50
2018-03-16T04:03:56.932Z,8.50
2018-03-16T04:06:32.423Z,8.50
2018-03-16T04:09:06.876Z,8.50
2018-03-16T04:11:41.457Z,8.50
2018-03-16T04:14:15.996Z,8.60
2018-03-16T04:16:50.820Z,8.60
2018-03-16T04:19:25.502Z,8.60
2018-03-16T04:21:54.539Z,8.60
2018-03-16T04:24:29.570Z,8.60
2018-03-16T04:27:04.199Z,8.60
2018-03-16T04:29:38.736Z,8.60
2018-03-16T04:32:13.737Z,8.60
2018-03-16T04:34:48.540Z,8.70
2018-03-16T04:37:18.409Z,8.70
2018-03-16T04:39:53.819Z,8.70
2018-03-16T04:42:28.632Z,8.70
2018-03-16T04:45:04.112Z,8.70
2018-03-16T04:47:38.832Z,8.70
2018-03-16T04:50:13.463Z,8.70
2018-03-16T04:52:48.041Z,8.70
2018-03-16T04:55:22.808Z,8.70
2018-03-16T04:57:58.449Z,8.80
2018-03-16T05:00:34.085Z,8.70
2018-03-16T05:03:09.558Z,8.80
2018-03-16T05:05:44.374Z,8.80
2018-03-16T05:08:19.085Z,8.80
2018-03-16T05:10:53.820Z,8.70
2018-03-16T05:13:28.347Z,8.80
2018-03-16T05:16:03.120Z,8.70
2018-03-16T05:18:38.049Z,8.70
2018-03-16T05:21:13.335Z,8.70
2018-03-16T05:23:48.584Z,8.80
2018-03-16T05:26:23.175Z,8.80
2018-03-16T05:28:57.863Z,8.80
2018-03-16T05:31:28.398Z,8.80
2018-03-16T05:33:57.489Z,8.80
2018-03-16T05:36:26.496Z,8.90
2018-03-16T05:38:55.465Z,8.90
2018-03-16T05:41:24.352Z,8.90
2018-03-16T05:43:54.190Z,8.90
2018-03-16T05:46:23.519Z,8.90
2018-03-16T05:48:58.324Z,8.90
2018-03-16T05:51:32.927Z,8.90
2018-03-16T05:54:07.622Z,8.90
2018-03-16T05:56:43.223Z,8.90
2018-03-16T05:59:17.647Z,8.90
2018-03-16T06:01:46.731Z,8.90
2018-03-16T06:04:15.916Z,9.00
2018-03-16T06:06:50.542Z,9.00
2018-03-16T06:09:25.957Z,9.00
2018-03-16T06:12:00.522Z,9.00
2018-03-16T06:14:30.416Z,9.00
2018-03-16T06:16:59.427Z,9.00
2018-03-16T06:19:28.512Z,9.00
2018-03-16T06:21:58.255Z,9.10
2018-03-16T06:24:27.397Z,9.10
2018-03-16T06:26:57.321Z,9.10
2018-03-16T06:29:26.595Z,9.10
2018-03-16T06:31:55.642Z,9.10
2018-03-16T06:34:24.886Z,9.10
2018-03-16T06:36:54.750Z,9.10
2018-03-16T06:39:24.698Z,9.10
2018-03-16T06:41:53.753Z,9.20
2018-03-16T06:44:22.963Z,9.20
2018-03-16T06:46:52.826Z,9.30
2018-03-16T06:49:23.348Z,9.30
2018-03-16T06:51:53.210Z,9.30
2018-03-16T06:54:22.406Z,9.30
2018-03-16T06:56:57.018Z,9.30
2018-03-16T06:59:26.881Z,9.30
2018-03-16T07:02:01.582Z,9.30
2018-03-16T07:04:36.174Z,9.40
2018-03-16T07:07:05.189Z,9.40
2018-03-16T07:09:40.020Z,9.40
2018-03-16T07:12:14.624Z,9.40
2018-03-16T07:14:49.621Z,9.40
2018-03-16T07:17:24.953Z,9.50
2018-03-16T07:20:00.005Z,9.50
2018-03-16T07:22:34.697Z,9.60
2018-03-16T07:25:09.956Z,9.70
2018-03-16T07:27:44.807Z,9.80
2018-03-16T07:30:20.398Z,9.80
2018-03-16T07:32:55.009Z,9.80
2018-03-16T07:35:25.520Z,9.90
2018-03-16T07:38:00.221Z,9.90
2018-03-16T07:40:35.019Z,10.00
2018-03-16T07:43:09.895Z,10.10
2018-03-16T07:45:50.100Z,10.20
2018-03-16T07:48:24.833Z,10.30
2018-03-16T07:51:00.276Z,10.30
2018-03-16T07:53:34.928Z,10.40
2018-03-16T07:56:09.704Z,10.60
2018-03-16T07:58:44.254Z,10.70
2018-03-16T08:01:19.204Z,10.70
2018-03-16T08:03:54.204Z,10.80
2018-03-16T08:06:29.381Z,10.80
2018-03-16T08:09:03.048Z,10.80
2018-03-16T08:11:37.746Z,10.80
2018-03-16T08:14:12.252Z,10.80
2018-03-16T08:16:46.893Z,10.90
2018-03-16T08:19:21.508Z,10.90
2018-03-16T08:21:56.146Z,10.90
2018-03-16T08:24:30.931Z,10.90
2018-03-16T08:27:05.864Z,10.90
2018-03-16T08:29:41.505Z,10.80
2018-03-16T08:32:16.987Z,10.90
2018-03-16T08:34:51.859Z,10.90
2018-03-16T08:37:21.294Z,10.90
2018-03-16T08:39:56.085Z,10.90
2018-03-16T08:42:30.687Z,10.90
2018-03-16T08:45:05.347Z,10.90
2018-03-16T08:47:40.160Z,10.90
2018-03-16T08:50:14.774Z,10.80
2018-03-16T08:52:49.541Z,10.70
2018-03-16T08:55:24.105Z,10.70
2018-03-16T08:57:58.905Z,10.60
2018-03-16T09:00:34.562Z,10.60
2018-03-16T09:03:09.254Z,10.60
2018-03-16T09:05:43.882Z,10.60
2018-03-16T09:08:18.528Z,10.60
2018-03-16T09:10:53.064Z,10.50
2018-03-16T09:13:27.687Z,10.40
2018-03-16T09:16:02.317Z,10.30
2018-03-16T09:18:36.931Z,10.30
2018-03-16T09:21:12.345Z,10.30
2018-03-16T09:23:47.681Z,10.30
2018-03-16T09:26:23.364Z,10.20
2018-03-16T09:28:57.907Z,10.20
2018-03-16T09:31:27.797Z,10.20
2018-03-16T09:34:02.394Z,10.20
2018-03-16T09:36:37.092Z,10.20
2018-03-16T09:39:12.386Z,10.10
2018-03-16T09:41:47.947Z,10.10
2018-03-16T09:44:22.553Z,10.10
2018-03-16T09:46:57.206Z,10.10
2018-03-16T09:49:31.910Z,10.00
2018-03-16T09:52:06.612Z,10.10
2018-03-16T09:54:52.431Z,10.10
2018-03-16T09:57:27.857Z,9.90
2018-03-16T10:00:03.578Z,10.10
2018-03-16T10:02:38.421Z,10.10
2018-03-16T10:05:07.331Z,10.10
2018-03-16T10:07:36.258Z,10.10
2018-03-16T10:10:04.571Z,10.00
2018-03-16T10:12:39.316Z,10.10
2018-03-16T10:15:13.724Z,10.10
2018-03-16T10:17:48.450Z,10.10
2018-03-16T10:20:23.571Z,10.00
2018-03-16T10:22:58.876Z,9.80
2018-03-16T10:25:34.245Z,9.70
2018-03-16T10:28:09.838Z,9.70
2018-03-16T10:30:44.463Z,9.60
2018-03-16T10:33:19.246Z,9.60
2018-03-16T10:35:55.663Z,9.60
2018-03-16T10:38:31.116Z,9.60
2018-03-16T10:41:06.468Z,9.80
2018-03-16T10:43:41.840Z,9.80
2018-03-16T10:46:16.643Z,9.80
2018-03-16T10:48:51.374Z,9.80
2018-03-16T10:51:25.986Z,9.70
2018-03-16T10:54:00.613Z,9.80
2018-03-16T10:56:35.193Z,9.90
2018-03-16T10:59:09.764Z,9.90
2018-03-16T11:01:50.506Z,9.90
2018-03-16T11:04:19.565Z,9.90
2018-03-16T11:06:59.762Z,9.80
2018-03-16T11:09:34.495Z,9.80
2018-03-16T11:12:09.039Z,9.70
2018-03-16T11:14:44.115Z,9.60
2018-03-16T11:17:13.035Z,9.50
2018-03-16T11:19:47.558Z,9.40
2018-03-16T11:22:22.122Z,9.50
2018-03-16T11:24:56.835Z,9.40
2018-03-16T11:27:32.365Z,9.40
2018-03-16T11:30:07.226Z,9.40
2018-03-16T11:32:41.759Z,9.30
2018-03-16T11:35:16.348Z,9.20
2018-03-16T11:37:51.892Z,8.90
2018-03-16T11:40:26.566Z,8.80
2018-03-16T11:43:01.105Z,8.70
2018-03-16T11:45:35.795Z,8.60
2018-03-16T11:48:12.521Z,8.50
2018-03-16T11:50:48.138Z,8.50
2018-03-16T11:53:22.348Z,8.40
2018-03-16T11:55:57.972Z,8.20
2018-03-16T11:58:33.373Z,8.30
2018-03-16T12:01:08.136Z,8.20
2018-03-16T12:03:43.643Z,8.10
2018-03-16T12:06:18.205Z,8.10
2018-03-16T12:08:52.782Z,8.10
2018-03-16T12:11:27.340Z,8.10
2018-03-16T12:14:02.153Z,8.10
2018-03-16T12:16:36.690Z,8.00
2018-03-16T12:19:06.900Z,7.90
2018-03-16T12:21:36.090Z,7.90
2018-03-16T12:24:05.903Z,7.80
2018-03-16T12:26:35.041Z,7.80
2018-03-16T12:29:04.681Z,8.00
2018-03-16T12:31:37.555Z,7.90
2018-03-16T12:34:06.734Z,7.90
2018-03-16T12:36:35.866Z,7.80
2018-03-16T12:39:04.229Z,7.90
2018-03-16T12:41:33.270Z,7.90
2018-03-16T12:44:02.414Z,7.80
2018-03-16T12:46:31.496Z,7.90
2018-03-16T12:49:00.613Z,7.70
2018-03-16T12:51:29.982Z,7.60
2018-03-16T12:53:59.275Z,7.50
2018-03-16T12:56:28.376Z,7.60
2018-03-16T12:58:57.643Z,7.50
2018-03-16T13:01:26.583Z,7.60
2018-03-16T13:03:55.675Z,7.50
2018-03-16T13:06:24.774Z,7.70
2018-03-16T13:08:55.419Z,7.70
2018-03-16T13:11:24.224Z,7.60
2018-03-16T13:13:53.316Z,7.50
2018-03-16T13:16:22.549Z,7.50
2018-03-16T13:18:51.676Z,7.40
2018-03-16T13:21:20.774Z,7.40
2018-03-16T13:23:49.967Z,7.30
2018-03-16T13:26:19.039Z,7.40
2018-03-16T13:28:48.193Z,7.30
2018-03-16T13:31:19.541Z,7.50
2018-03-16T13:33:48.622Z,7.50
2018-03-16T13:36:17.560Z,7.50
2018-03-16T13:38:46.785Z,7.50
2018-03-16T13:41:16.543Z,7.40
2018-03-16T13:43:46.181Z,7.40
2018-03-16T13:46:16.070Z,7.40
2018-03-16T13:48:45.304Z,7.40
2018-03-16T13:51:14.376Z,7.40
2018-03-16T13:53:44.488Z,7.50
2018-03-16T13:56:13.563Z,7.50
2018-03-16T13:58:43.401Z,7.50
2018-03-16T14:01:12.280Z,7.50
2018-03-16T14:03:42.872Z,7.40
2018-03-16T14:06:11.931Z,7.40
2018-03-16T14:08:40.778Z,7.30
2018-03-16T14:11:09.852Z,7.40
2018-03-16T14:13:39.337Z,7.50
2018-03-16T14:16:08.381Z,7.50
2018-03-16T14:18:38.390Z,7.30
2018-03-16T14:21:07.424Z,7.30
2018-03-16T14:23:36.504Z,7.30
2018-03-16T14:26:06.288Z,7.10
2018-03-16T14:28:35.333Z,7.10
2018-03-16T14:31:04.422Z,7.10
2018-03-16T14:33:38.932Z,7.00
2018-03-16T14:36:13.169Z,6.80
2018-03-16T14:38:47.917Z,6.80
2018-03-16T14:41:22.394Z,6.80
2018-03-16T14:43:58.522Z,6.90
2018-03-16T14:46:33.087Z,6.90
2018-03-16T14:49:07.673Z,6.80
2018-03-16T14:51:42.220Z,6.80
2018-03-16T14:54:16.733Z,6.60
2018-03-16T14:56:51.340Z,6.60
2018-03-16T14:59:25.973Z,6.50
2018-03-16T15:02:00.500Z,6.40
2018-03-16T15:04:35.101Z,6.50
2018-03-16T15:07:09.664Z,6.40
2018-03-16T15:09:44.285Z,6.40
2018-03-16T15:12:18.987Z,6.40
2018-03-16T15:14:53.671Z,6.30
2018-03-16T15:17:28.440Z,6.30
2018-03-16T15:20:02.967Z,6.20
2018-03-16T15:22:37.514Z,6.30
2018-03-16T15:25:12.109Z,6.30
2018-03-16T15:27:47.450Z,6.10
2018-03-16T15:30:22.283Z,6.10
2018-03-16T15:32:56.956Z,6.10
2018-03-16T15:35:32.451Z,6.10
2018-03-16T15:38:01.352Z,6.10
2018-03-16T15:40:36.781Z,6.10
2018-03-16T15:43:11.418Z,6.10
2018-03-16T15:45:45.991Z,6.10
2018-03-16T15:48:20.540Z,5.90
2018-03-16T15:50:55.238Z,5.90
2018-03-16T15:53:29.812Z,5.90
2018-03-16T15:56:05.191Z,6.00
2018-03-16T15:58:39.912Z,6.00
2018-03-16T16:01:15.305Z,6.00
2018-03-16T16:03:50.049Z,6.00
2018-03-16T16:06:24.866Z,6.10
2018-03-16T16:08:59.385Z,6.00
2018-03-16T16:11:34.046Z,5.90
2018-03-16T16:14:08.556Z,5.80
2018-03-16T16:16:44.122Z,5.50
2018-03-16T16:19:20.343Z,5.50
2018-03-16T16:21:55.580Z,5.60
2018-03-16T16:24:30.310Z,5.60
2018-03-16T16:27:04.522Z,5.50
2018-03-16T16:29:39.116Z,5.40
2018-03-16T16:32:14.105Z,5.40
2018-03-16T16:34:48.607Z,5.30
2018-03-16T16:37:23.172Z,5.30
2018-03-16T16:39:58.539Z,5.30
2018-03-16T16:42:33.905Z,5.20
2018-03-16T16:45:08.474Z,5.30
2018-03-16T16:47:43.313Z,5.30
2018-03-16T16:50:18.087Z,5.20
2018-03-16T16:52:52.830Z,5.20
2018-03-16T16:55:27.520Z,5.00
2018-03-16T16:58:02.042Z,5.00
2018-03-16T17:00:36.736Z,5.00
2018-03-16T17:03:12.145Z,4.90
2018-03-16T17:05:46.820Z,4.90
2018-03-16T17:08:21.824Z,4.80
2018-03-16T17:10:56.364Z,4.80
2018-03-16T17:13:31.077Z,4.80
2018-03-16T17:16:06.416Z,4.70
2018-03-16T17:18:41.741Z,4.80
2018-03-16T17:21:16.446Z,4.80
2018-03-16T17:23:51.049Z,4.80
2018-03-16T17:26:25.797Z,4.80
2018-03-16T17:29:00.350Z,4.70
2018-03-16T17:31:35.049Z,4.60
2018-03-16T17:34:10.319Z,4.50
2018-03-16T17:36:44.952Z,4.50
2018-03-16T17:39:19.908Z,4.50
2018-03-16T17:41:54.399Z,4.50
2018-03-16T17:44:29.025Z,4.50
2018-03-16T17:47:04.364Z,4.60
2018-03-16T17:49:38.689Z,4.60
2018-03-16T17:52:13.449Z,4.60
2018-03-16T17:54:48.049Z,4.70
2018-03-16T17:57:23.569Z,4.50
2018-03-16T17:59:58.280Z,4.40
2018-03-16T18:02:33.041Z,4.40
2018-03-16T18:05:08.556Z,4.30
2018-03-16T18:07:37.620Z,4.30
2018-03-16T18:10:12.282Z,4.30
2018-03-16T18:12:47.054Z,4.40
2018-03-16T18:15:21.825Z,4.20
2018-03-16T18:17:56.406Z,4.20
2018-03-16T18:20:30.945Z,4.20
2018-03-16T18:23:06.288Z,4.20
2018-03-16T18:25:40.988Z,4.10
2018-03-16T18:28:12.308Z,4.20
2018-03-16T18:30:47.633Z,4.10
2018-03-16T18:33:22.415Z,4.10
2018-03-16T18:35:57.712Z,4.00
2018-03-16T18:38:33.243Z,4.00
2018-03-16T18:41:07.736Z,4.00
2018-03-16T18:43:42.399Z,3.90
2018-03-16T18:46:17.087Z,3.80
2018-03-16T18:48:51.628Z,3.80
2018-03-16T18:51:26.313Z,3.80
2018-03-16T18:54:01.052Z,3.80
2018-03-16T18:56:35.656Z,3.80
2018-03-16T18:59:10.372Z,3.80
2018-03-16T19:01:44.880Z,3.90
2018-03-16T19:04:20.226Z,3.90
2018-03-16T19:06:54.774Z,3.90
2018-03-16T19:09:25.229Z,3.80
2018-03-16T19:12:00.099Z,3.70
2018-03-16T19:14:34.622Z,3.80
2018-03-16T19:17:09.181Z,3.70
2018-03-16T19:19:45.267Z,3.70
2018-03-16T19:22:20.034Z,3.70
2018-03-16T19:24:54.705Z,3.70
2018-03-16T19:27:30.384Z,3.70
2018-03-16T19:30:05.883Z,3.70
2018-03-16T19:32:40.559Z,3.60
2018-03-16T19:35:14.416Z,3.60
2018-03-16T19:37:49.045Z,3.60
2018-03-16T19:40:23.936Z,3.60
2018-03-16T19:42:59.318Z,3.80
2018-03-16T19:45:33.852Z,3.70
2018-03-16T19:48:08.540Z,3.70
2018-03-16T19:50:43.149Z,3.60
2018-03-16T19:53:17.708Z,3.60
2018-03-16T19:55:52.175Z,3.50
2018-03-16T19:58:26.667Z,3.50
2018-03-16T20:01:01.248Z,3.50
2018-03-16T20:03:35.836Z,3.60
2018-03-16T20:06:10.416Z,3.60
2018-03-16T20:08:45.051Z,3.60
2018-03-16T20:11:20.578Z,3.60
2018-03-16T20:13:55.140Z,3.60
2018-03-16T20:16:29.834Z,3.50
2018-03-16T20:18:58.809Z,3.50
2018-03-16T20:21:33.483Z,3.50
2018-03-16T20:24:08.305Z,3.40
2018-03-16T20:26:42.792Z,3.40
2018-03-16T20:29:17.479Z,3.30
2018-03-16T20:31:52.184Z,3.30
2018-03-16T20:34:26.631Z,3.40
2018-03-16T20:37:01.464Z,3.30
2018-03-16T20:39:36.996Z,3.30
2018-03-16T20:42:11.464Z,3.20
2018-03-16T20:44:46.279Z,3.20
2018-03-16T20:47:20.986Z,3.20
2018-03-16T20:49:55.669Z,3.20
2018-03-16T20:52:30.495Z,3.30
2018-03-16T20:55:04.712Z,3.20
2018-03-16T20:57:40.057Z,3.10
2018-03-16T21:00:14.715Z,3.10
2018-03-16T21:02:50.062Z,3.10
2018-03-16T21:05:24.849Z,3.10
2018-03-16T21:08:00.142Z,3.00
2018-03-16T21:10:34.962Z,3.00
2018-03-16T21:13:09.810Z,3.00
2018-03-16T21:15:45.237Z,3.00
2018-03-16T21:18:19.814Z,3.00
2018-03-16T21:20:54.745Z,3.00
2018-03-16T21:23:29.490Z,3.10
2018-03-16T21:26:04.822Z,3.20
2018-03-16T21:28:40.518Z,3.10
2018-03-16T21:31:15.161Z,3.10
2018-03-16T21:33:49.720Z,3.10
2018-03-16T21:36:25.176Z,3.00
2018-03-16T21:38:59.839Z,3.00
2018-03-16T21:41:34.622Z,3.10
2018-03-16T21:44:09.193Z,3.00
2018-03-16T21:46:43.899Z,3.00
2018-03-16T21:49:19.489Z,3.00
2018-03-16T21:51:54.094Z,3.00
2018-03-16T21:54:28.997Z,3.00
2018-03-16T21:56:58.916Z,3.10
2018-03-16T21:59:33.443Z,3.20
2018-03-16T22:02:08.718Z,3.20
2018-03-16T22:04:43.469Z,3.20
2018-03-16T22:07:18.038Z,3.20
2018-03-16T22:09:52.666Z,3.30
2018-03-16T22:12:27.205Z,3.30
2018-03-16T22:15:01.943Z,3.30
2018-03-16T22:17:36.555Z,3.20
2018-03-16T22:20:15.418Z,3.10
2018-03-16T22:22:50.200Z,3.10
2018-03-16T22:25:24.828Z,3.10
2018-03-16T22:28:00.167Z,3.10
2018-03-16T22:30:34.798Z,3.10
2018-03-16T22:33:09.303Z,3.10
2018-03-16T22:35:44.484Z,3.00
2018-03-16T22:38:19.182Z,3.00
2018-03-16T22:40:53.803Z,3.00
2018-03-16T22:43:28.589Z,3.00
2018-03-16T22:46:03.294Z,3.00
2018-03-16T22:48:38.115Z,3.00
2018-03-16T22:51:12.412Z,2.90
2018-03-16T22:53:47.847Z,2.90
2018-03-16T22:56:22.910Z,2.80
2018-03-16T22:58:57.480Z,2.90
2018-03-16T23:01:32.074Z,2.90
2018-03-16T23:04:07.388Z,2.80
2018-03-16T23:06:42.237Z,2.80
2018-03-16T23:09:16.990Z,2.70
2018-03-16T23:11:51.860Z,2.70
2018-03-16T23:14:26.546Z,2.70
2018-03-16T23:17:01.606Z,2.80
2018-03-16T23:19:36.862Z,2.80
2018-03-16T23:22:11.482Z,2.90
2018-03-16T23:24:46.145Z,2.90
2018-03-16T23:27:21.537Z,2.70
2018-03-16T23:29:56.324Z,2.70
2018-03-16T23:32:31.884Z,2.60
2018-03-16T23:35:06.597Z,2.60
2018-03-16T23:37:41.693Z,2.60
2018-03-16T23:40:15.941Z,2.50
2018-03-16T23:42:50.561Z,2.50
2018-03-16T23:45:25.130Z,2.60
2018-03-16T23:47:59.809Z,2.50
2018-03-16T23:50:34.543Z,2.50
2018-03-16T23:53:09.185Z,2.50
2018-03-16T23:55:44.687Z,2.50
2018-03-16T23:58:19.244Z,2.50
